Time;durP1;ratioP1;P1;durP2;ratioP2;P2;SDS_P1;SDS_P2;PMS_P1;PMS_P2;Temp;Humidity;BMP_temperature;BMP_pressure;BME280_temperature;BME280_humidity;BME280_pressure;Samples;Min_cycle;Max_cycle;Signal;HPM_P1;HPM_P2
2021/12/16 00:04:48;;;;;;;27.95;16.20;;;12.30;99.90;;;;;;4974085;28;20193;-87
2021/12/16 00:34:16;;;;;;;30.02;17.67;;;11.90;99.90;;;;;;4977281;28;20185;-82
2021/12/16 00:36:44;;;;;;;29.42;17.15;;;11.70;99.90;;;;;;4977351;28;20513;-82
2021/12/16 00:39:17;;;;;;;28.38;17.52;;;11.90;99.90;;;;;;4977281;28;20170;-86
2021/12/16 00:41:46;;;;;;;25.60;17.50;;;12.10;99.90;;;;;;4977400;28;20197;-87
2021/12/16 00:54:42;;;;;;;34.90;18.27;;;11.90;99.90;;;;;;4976738;28;20253;-87
2021/12/16 00:57:13;;;;;;;25.17;17.33;;;11.80;99.90;;;;;;4976644;28;20245;-85
2021/12/16 00:59:43;;;;;;;25.05;16.83;;;11.70;99.90;;;;;;4976604;28;20662;-81
2021/12/16 01:34:44;;;;;;;27.17;16.77;;;11.70;99.90;;;;;;4976221;28;20237;-77
2021/12/16 01:40:11;;;;;;;25.45;17.88;;;11.80;99.90;;;;;;4975987;28;20617;-87
2021/12/16 01:50:33;;;;;;;29.48;17.85;;;11.70;99.90;;;;;;4976199;28;20224;-82
2021/12/16 01:56:08;;;;;;;31.15;16.63;;;11.50;99.90;;;;;;4975960;28;20636;-87
2021/12/16 01:58:34;;;;;;;27.60;16.80;;;11.50;99.90;;;;;;4976086;28;20189;-87
2021/12/16 02:01:19;;;;;;;25.60;17.00;;;11.50;99.90;;;;;;4975584;28;20582;-87
2021/12/16 02:04:02;;;;;;;27.98;16.70;;;11.70;99.90;;;;;;4976307;28;20176;-76
2021/12/16 02:09:00;;;;;;;29.23;16.35;;;11.90;99.90;;;;;;4975692;28;20220;-88
2021/12/16 02:34:21;;;;;;;27.08;17.48;;;11.90;99.90;;;;;;4975659;28;20184;-77
2021/12/16 02:38:47;;;;;;;28.45;16.63;;;11.80;99.90;;;;;;4975282;28;20248;-83
2021/12/16 02:41:14;;;;;;;29.45;18.13;;;12.00;99.90;;;;;;4975322;28;20172;-85
2021/12/16 02:44:06;;;;;;;30.83;18.23;;;12.10;99.90;;;;;;4975103;28;20166;-86
2021/12/16 02:49:09;;;;;;;32.08;17.67;;;12.40;99.90;;;;;;4974719;28;20216;-86
2021/12/16 02:51:35;;;;;;;26.80;18.08;;;12.20;99.90;;;;;;4957516;28;20170;-78
2021/12/16 02:54:05;;;;;;;24.98;16.42;;;12.10;99.90;;;;;;4974972;28;20180;-86
2021/12/16 02:56:32;;;;;;;31.52;18.73;;;12.00;99.90;;;;;;4974556;28;20166;-78
2021/12/16 02:58:59;;;;;;;23.85;16.70;;;12.10;99.90;;;;;;4975149;28;20197;-86
2021/12/16 03:01:38;;;;;;;25.40;16.63;;;11.90;99.90;;;;;;4974623;28;20176;-87
2021/12/16 03:04:09;;;;;;;26.27;17.73;;;11.90;99.90;;;;;;4975071;28;20201;-80
2021/12/16 03:06:36;;;;;;;28.50;16.85;;;11.90;99.90;;;;;;4974428;28;20173;-85
2021/12/16 03:09:05;;;;;;;24.58;16.92;;;11.90;99.90;;;;;;4974691;28;20212;-88
2021/12/16 03:14:23;;;;;;;27.85;17.83;;;12.10;99.90;;;;;;4974498;28;20269;-87
2021/12/16 03:17:09;;;;;;;28.88;17.92;;;12.10;99.90;;;;;;4974758;28;20536;-86
2021/12/16 03:19:55;;;;;;;29.02;18.40;;;12.20;99.90;;;;;;4974465;28;20648;-87
2021/12/16 03:23:05;;;;;;;26.10;17.05;;;12.00;99.90;;;;;;4974369;28;20643;-86
2021/12/16 03:25:23;;;;;;;30.88;17.88;;;11.90;99.90;;;;;;4972457;28;20181;-76
2021/12/16 03:38:56;;;;;;;31.13;18.52;;;12.20;99.90;;;;;;4974446;28;20747;-88
2021/12/16 03:41:22;;;;;;;33.28;19.30;;;12.20;99.90;;;;;;4974391;28;20217;-82
2021/12/16 03:43:49;;;;;;;26.80;17.83;;;12.20;99.90;;;;;;4974944;28;20568;-87
2021/12/16 03:46:27;;;;;;;28.52;18.63;;;12.10;99.90;;;;;;4978100;28;20170;-83
2021/12/16 03:49:00;;;;;;;30.02;19.23;;;12.20;99.90;;;;;;4978367;28;20213;-88
2021/12/16 03:51:46;;;;;;;33.13;19.60;;;11.90;99.90;;;;;;4978061;28;20170;-86
2021/12/16 03:54:19;;;;;;;33.80;18.85;;;12.00;99.90;;;;;;4960500;28;20189;-86
2021/12/16 03:56:45;;;;;;;32.58;18.85;;;12.20;99.90;;;;;;4977912;28;20683;-76
2021/12/16 03:59:14;;;;;;;35.33;18.67;;;11.80;99.90;;;;;;4978173;28;20166;-87
2021/12/16 04:01:39;;;;;;;25.40;17.77;;;11.70;99.90;;;;;;4978473;28;20166;-87
2021/12/16 04:04:06;;;;;;;27.08;17.98;;;11.60;99.90;;;;;;4977802;28;20188;-85
2021/12/16 04:06:35;;;;;;;33.45;18.77;;;11.90;99.90;;;;;;4960446;28;20236;-87
2021/12/16 04:09:03;;;;;;;26.65;18.27;;;11.70;99.90;;;;;;4960518;28;20232;-82
2021/12/16 04:11:39;;;;;;;28.73;16.55;;;11.80;99.90;;;;;;4977637;28;20168;-85
2021/12/16 04:14:06;;;;;;;32.08;18.70;;;11.70;99.90;;;;;;4977860;28;20253;-81
2021/12/16 04:17:00;;;;;;;26.40;18.05;;;12.00;99.90;;;;;;4977662;28;20178;-87
2021/12/16 04:19:28;;;;;;;31.80;19.23;;;11.80;99.90;;;;;;4976980;28;20193;-87
2021/12/16 04:22:04;;;;;;;29.88;18.75;;;11.90;99.90;;;;;;4980068;28;20199;-87
2021/12/16 04:24:29;;;;;;;28.23;17.95;;;11.70;99.90;;;;;;4970201;28;20185;-87
2021/12/16 04:26:58;;;;;;;28.58;18.23;;;11.70;99.90;;;;;;4991687;28;20554;-85
2021/12/16 04:29:24;;;;;;;34.22;19.98;;;11.80;99.90;;;;;;4991787;28;20209;-87
2021/12/16 04:31:53;;;;;;;26.33;18.05;;;11.80;99.90;;;;;;4992408;28;20166;-86
2021/12/16 04:34:19;;;;;;;30.17;19.58;;;11.90;99.90;;;;;;4985050;28;20671;-76
2021/12/16 04:36:45;;;;;;;40.17;19.58;;;12.00;99.90;;;;;;4977146;28;20166;-76
2021/12/16 04:39:15;;;;;;;32.17;18.63;;;12.20;99.90;;;;;;4977174;28;20649;-77
2021/12/16 04:41:42;;;;;;;30.90;18.58;;;12.00;99.90;;;;;;4977519;28;20177;-84
2021/12/16 04:44:13;;;;;;;32.03;19.48;;;11.70;99.90;;;;;;4977004;28;20508;-87
2021/12/16 04:46:39;;;;;;;32.85;18.85;;;11.70;99.90;;;;;;4976814;28;20177;-87
2021/12/16 04:49:07;;;;;;;37.88;20.08;;;11.90;99.90;;;;;;4978598;28;20288;-86
2021/12/16 04:51:38;;;;;;;29.95;18.15;;;11.90;99.90;;;;;;4959980;28;20170;-85
2021/12/16 04:54:05;;;;;;;30.10;18.83;;;11.80;99.90;;;;;;4976935;28;20169;-85
2021/12/16 04:56:31;;;;;;;32.35;17.88;;;12.00;99.90;;;;;;4975382;28;20228;-86
2021/12/16 04:58:58;;;;;;;34.55;20.67;;;11.90;99.90;;;;;;4959462;28;20174;-85
2021/12/16 05:01:24;;;;;;;33.00;19.80;;;11.90;99.90;;;;;;4976894;28;20169;-85
2021/12/16 05:03:51;;;;;;;27.17;17.75;;;11.90;99.90;;;;;;4976701;28;20163;-77
2021/12/16 05:06:18;;;;;;;28.98;18.85;;;11.80;99.90;;;;;;4976709;28;20177;-78
2021/12/16 05:08:43;;;;;;;32.55;19.08;;;11.90;99.90;;;;;;4976196;28;20209;-88
2021/12/16 05:11:13;;;;;;;32.85;18.13;;;11.90;99.90;;;;;;4976529;28;20170;-76
2021/12/16 05:13:40;;;;;;;43.88;19.20;;;11.80;99.90;;;;;;4976634;28;20687;-86
2021/12/16 05:16:06;;;;;;;30.95;18.75;;;11.80;99.90;;;;;;4976792;28;20185;-82
2021/12/16 05:18:36;;;;;;;39.63;19.13;;;12.00;99.90;;;;;;4976061;28;20221;-80
2021/12/16 05:21:08;;;;;;;34.67;18.63;;;12.00;99.90;;;;;;4976153;28;20564;-85
2021/12/16 05:26:22;;;;;;;34.88;20.23;;;12.00;99.90;;;;;;4976030;28;20212;-76
2021/12/16 05:28:54;;;;;;;27.67;18.83;;;12.10;99.90;;;;;;4975994;28;20233;-76
2021/12/16 05:31:24;;;;;;;30.65;19.05;;;12.10;99.90;;;;;;4976389;28;20253;-87
2021/12/16 05:33:52;;;;;;;28.58;18.70;;;12.20;99.90;;;;;;4976489;28;20229;-85
2021/12/16 05:36:17;;;;;;;33.80;18.58;;;12.00;99.90;;;;;;4976087;28;20169;-88
2021/12/16 05:38:43;;;;;;;29.58;18.67;;;11.90;99.90;;;;;;4975580;28;20186;-88
2021/12/16 05:41:12;;;;;;;33.88;18.85;;;11.80;99.90;;;;;;4975925;28;20173;-79
2021/12/16 05:43:39;;;;;;;38.38;20.90;;;11.90;99.90;;;;;;4975830;28;20181;-86
2021/12/16 05:46:06;;;;;;;32.35;18.77;;;11.80;99.90;;;;;;4975885;28;20241;-83
2021/12/16 05:48:35;;;;;;;33.25;18.45;;;12.10;99.90;;;;;;4975833;28;20236;-78
2021/12/16 05:51:06;;;;;;;27.85;17.48;;;12.10;99.90;;;;;;4959415;28;20174;-87
2021/12/16 05:53:32;;;;;;;30.30;18.55;;;12.00;99.90;;;;;;4975782;28;20162;-77
2021/12/16 05:55:58;;;;;;;31.40;18.85;;;12.10;99.90;;;;;;4976439;28;20163;-83
2021/12/16 05:58:25;;;;;;;29.50;19.02;;;12.10;99.90;;;;;;4986446;28;20198;-76
2021/12/16 06:00:59;;;;;;;39.10;19.90;;;12.30;99.90;;;;;;4991814;28;20158;-77
2021/12/16 06:03:25;;;;;;;32.78;18.95;;;12.40;99.90;;;;;;4992143;28;20196;-78
2021/12/16 06:05:52;;;;;;;36.40;19.38;;;12.40;99.90;;;;;;4991225;28;20316;-75
2021/12/16 06:08:18;;;;;;;42.45;20.95;;;12.40;99.90;;;;;;4996136;28;20256;-78
2021/12/16 06:13:34;;;;;;;35.90;20.20;;;12.60;99.90;;;;;;4999024;28;20182;-80
2021/12/16 06:27:21;;;;;;;35.55;19.45;;;12.10;99.90;;;;;;4975842;28;20284;-77
2021/12/16 06:29:48;;;;;;;34.03;19.50;;;12.20;99.90;;;;;;4975876;28;20704;-87
2021/12/16 06:32:14;;;;;;;36.20;19.98;;;12.10;99.90;;;;;;4975576;28;20165;-86
2021/12/16 06:34:41;;;;;;;32.88;20.10;;;12.20;99.90;;;;;;4975865;28;20206;-86
2021/12/16 06:37:06;;;;;;;29.65;18.98;;;12.30;99.90;;;;;;4975379;28;20220;-88
2021/12/16 06:39:32;;;;;;;39.42;22.00;;;12.30;99.90;;;;;;4975306;28;20181;-83
2021/12/16 06:41:59;;;;;;;31.75;19.45;;;12.40;99.90;;;;;;4975381;28;20185;-79
2021/12/16 06:44:30;;;;;;;35.47;19.65;;;12.30;99.90;;;;;;4975580;28;20185;-87
2021/12/16 06:47:06;;;;;;;31.73;20.20;;;12.40;99.90;;;;;;4975400;28;20189;-79
2021/12/16 06:49:34;;;;;;;33.58;20.45;;;12.40;99.90;;;;;;4975900;28;20277;-87
2021/12/16 06:52:05;;;;;;;30.05;19.60;;;12.60;99.90;;;;;;4975586;28;20169;-82
2021/12/16 06:59:51;;;;;;;37.67;19.63;;;12.60;99.90;;;;;;4975617;28;20232;-88
2021/12/16 07:02:36;;;;;;;31.40;18.65;;;12.40;99.90;;;;;;4975104;28;20173;-77
2021/12/16 07:05:05;;;;;;;34.15;19.52;;;12.30;99.90;;;;;;4975718;28;20208;-87
2021/12/16 07:07:30;;;;;;;32.50;19.73;;;12.30;99.90;;;;;;4974828;28;20193;-86
2021/12/16 07:09:56;;;;;;;34.17;19.48;;;12.30;99.90;;;;;;4975829;28;20603;-88
2021/12/16 07:12:34;;;;;;;29.52;19.60;;;12.40;99.90;;;;;;4974571;28;20170;-83
2021/12/16 07:15:00;;;;;;;29.67;18.92;;;12.30;99.90;;;;;;4974919;28;20173;-83
2021/12/16 07:17:26;;;;;;;32.55;18.75;;;12.20;99.90;;;;;;4974836;28;20229;-79
2021/12/16 07:19:51;;;;;;;39.20;19.50;;;12.10;99.90;;;;;;4976009;28;20220;-83
2021/12/16 07:22:18;;;;;;;27.13;18.58;;;12.10;99.90;;;;;;4978716;28;20166;-86
2021/12/16 07:24:44;;;;;;;39.60;20.30;;;12.20;99.90;;;;;;4978636;28;20177;-84
2021/12/16 07:27:10;;;;;;;36.92;20.70;;;12.20;99.90;;;;;;4979404;28;20228;-78
2021/12/16 07:29:37;;;;;;;31.52;19.20;;;12.40;99.90;;;;;;4978667;28;20340;-79
2021/12/16 07:32:03;;;;;;;37.70;20.05;;;12.30;99.90;;;;;;4978443;28;20201;-84
2021/12/16 07:34:29;;;;;;;30.55;19.80;;;12.40;99.90;;;;;;4978892;28;20644;-83
2021/12/16 07:36:55;;;;;;;33.30;20.65;;;12.30;99.90;;;;;;4978653;28;20186;-78
2021/12/16 07:39:29;;;;;;;34.38;19.60;;;12.30;99.90;;;;;;4978029;28;20201;-79
2021/12/16 07:41:56;;;;;;;28.33;18.30;;;12.40;99.90;;;;;;4980927;28;20244;-88
2021/12/16 07:44:22;;;;;;;30.58;19.02;;;12.50;99.90;;;;;;4980456;28;20221;-78
2021/12/16 07:46:55;;;;;;;36.97;21.55;;;12.40;99.90;;;;;;4983741;28;20174;-78
2021/12/16 07:49:27;;;;;;;35.88;20.25;;;12.40;99.90;;;;;;4979115;28;20675;-85
2021/12/16 07:51:54;;;;;;;34.15;19.55;;;12.40;99.90;;;;;;4979495;28;20165;-84
2021/12/16 07:54:21;;;;;;;32.15;19.73;;;12.40;99.90;;;;;;4980342;28;20178;-78
2021/12/16 07:56:49;;;;;;;35.33;19.90;;;12.30;99.90;;;;;;4979936;28;20159;-77
2021/12/16 07:59:15;;;;;;;33.05;20.38;;;12.30;99.90;;;;;;4981775;28;20261;-87
2021/12/16 08:01:43;;;;;;;46.17;20.80;;;12.20;99.90;;;;;;4978735;28;20252;-76
2021/12/16 08:04:17;;;;;;;31.55;20.85;;;12.30;99.90;;;;;;4961071;28;20181;-84
2021/12/16 08:06:43;;;;;;;30.90;20.02;;;12.30;99.90;;;;;;4977714;28;20216;-78
2021/12/16 08:09:09;;;;;;;44.50;20.55;;;12.40;99.90;;;;;;4977758;28;20204;-75
2021/12/16 08:11:38;;;;;;;35.20;19.17;;;12.20;99.90;;;;;;4979442;28;20198;-85
2021/12/16 08:14:04;;;;;;;35.15;19.80;;;12.30;99.90;;;;;;4979445;28;20177;-83
2021/12/16 08:16:31;;;;;;;41.53;20.30;;;12.20;99.90;;;;;;4978502;28;20174;-89
2021/12/16 08:18:58;;;;;;;33.10;20.23;;;12.10;99.90;;;;;;4979865;28;20186;-80
2021/12/16 08:21:28;;;;;;;37.63;19.73;;;12.30;99.90;;;;;;4979753;28;20181;-87
2021/12/16 08:23:54;;;;;;;39.75;20.50;;;12.40;99.90;;;;;;4982365;28;20173;-88
2021/12/16 08:26:20;;;;;;;45.05;19.88;;;12.40;99.90;;;;;;4981020;28;20181;-87
2021/12/16 08:28:46;;;;;;;45.17;19.92;;;12.30;99.90;;;;;;4962298;28;20245;-88
2021/12/16 08:31:13;;;;;;;38.97;20.92;;;12.30;99.90;;;;;;4978773;28;20294;-84
2021/12/16 08:33:39;;;;;;;36.30;20.85;;;12.40;99.90;;;;;;4976974;28;20181;-77
2021/12/16 08:36:07;;;;;;;32.65;19.63;;;12.50;99.90;;;;;;4982152;28;20504;-86
2021/12/16 08:38:36;;;;;;;35.83;21.08;;;12.50;99.90;;;;;;4974330;28;20206;-82
2021/12/16 08:41:09;;;;;;;36.42;21.30;;;12.50;99.90;;;;;;4977466;28;20250;-82
2021/12/16 08:43:36;;;;;;;35.72;21.65;;;12.60;99.90;;;;;;4976269;28;20181;-79
2021/12/16 08:46:03;;;;;;;33.58;19.92;;;12.70;99.90;;;;;;4978628;28;20241;-88
2021/12/16 08:48:28;;;;;;;36.95;20.95;;;12.60;99.90;;;;;;4974066;28;20268;-88
2021/12/16 08:50:56;;;;;;;34.47;21.38;;;12.50;99.90;;;;;;4977013;28;20162;-79
2021/12/16 08:53:23;;;;;;;32.55;20.20;;;12.60;99.90;;;;;;4975886;28;20225;-89
2021/12/16 08:55:50;;;;;;;36.67;19.17;;;12.80;99.90;;;;;;4979656;28;20157;-82
2021/12/16 08:58:17;;;;;;;36.33;21.23;;;12.80;99.90;;;;;;4980669;28;20194;-84
2021/12/16 09:00:48;;;;;;;31.33;20.08;;;12.60;99.90;;;;;;4981178;28;20197;-87
2021/12/16 09:03:14;;;;;;;30.17;19.13;;;12.80;99.90;;;;;;4977011;28;20213;-83
2021/12/16 09:05:41;;;;;;;34.80;20.20;;;12.70;99.90;;;;;;4980233;28;20225;-80
2021/12/16 09:08:06;;;;;;;30.52;18.27;;;12.80;99.90;;;;;;4980445;28;20671;-85
2021/12/16 09:10:34;;;;;;;33.00;20.75;;;12.80;99.90;;;;;;4978942;28;20170;-84
2021/12/16 09:13:03;;;;;;;36.47;20.48;;;12.90;99.90;;;;;;4979760;28;20169;-87
2021/12/16 09:15:54;;;;;;;33.42;19.60;;;13.00;99.90;;;;;;4978073;28;20549;-80
2021/12/16 09:18:23;;;;;;;36.22;20.40;;;12.90;99.90;;;;;;4979116;28;20272;-78
2021/12/16 09:20:51;;;;;;;33.40;19.67;;;12.90;99.90;;;;;;4980118;28;20173;-85
2021/12/16 09:23:16;;;;;;;32.08;19.73;;;12.90;99.90;;;;;;4979323;28;20174;-81
2021/12/16 09:25:44;;;;;;;37.42;20.20;;;12.80;99.90;;;;;;4970463;28;20180;-82
2021/12/16 09:28:11;;;;;;;34.25;20.38;;;12.70;99.90;;;;;;4995508;28;20237;-84
2021/12/16 09:30:37;;;;;;;36.35;20.63;;;12.80;99.90;;;;;;4991333;28;20711;-85
2021/12/16 09:33:05;;;;;;;36.97;20.67;;;13.00;99.90;;;;;;4975585;28;20182;-83
2021/12/16 09:35:35;;;;;;;43.95;22.90;;;12.90;99.90;;;;;;4984938;28;20166;-80
2021/12/16 09:38:03;;;;;;;42.92;20.85;;;12.90;99.90;;;;;;4975766;28;20190;-81
2021/12/16 09:40:30;;;;;;;31.58;20.90;;;13.10;99.90;;;;;;4977586;28;20170;-78
2021/12/16 09:42:57;;;;;;;36.95;19.00;;;12.90;99.90;;;;;;4959669;28;20272;-80
2021/12/16 09:45:23;;;;;;;36.95;19.77;;;12.90;99.90;;;;;;4977357;28;20170;-77
2021/12/16 09:47:50;;;;;;;33.47;19.48;;;13.10;99.90;;;;;;4977956;28;20208;-81
2021/12/16 09:50:22;;;;;;;45.15;21.90;;;13.10;99.90;;;;;;4978488;28;20181;-77
2021/12/16 09:52:47;;;;;;;30.02;20.02;;;13.10;99.90;;;;;;4977352;28;20169;-76
2021/12/16 09:55:13;;;;;;;40.38;20.08;;;12.90;99.90;;;;;;4977417;28;20204;-85
2021/12/16 09:57:39;;;;;;;33.22;19.92;;;12.90;99.90;;;;;;4978234;28;20182;-77
2021/12/16 10:00:10;;;;;;;37.38;20.15;;;12.90;99.90;;;;;;4977472;28;20166;-80
2021/12/16 10:02:38;;;;;;;36.10;18.45;;;13.00;99.90;;;;;;4972624;28;20185;-81
2021/12/16 10:05:06;;;;;;;33.08;19.77;;;12.80;99.90;;;;;;4974933;28;20173;-76
2021/12/16 10:07:34;;;;;;;35.72;21.45;;;12.80;99.90;;;;;;4973245;28;20201;-88
2021/12/16 10:10:07;;;;;;;32.45;19.98;;;12.80;99.90;;;;;;4975061;28;20210;-79
2021/12/16 10:12:37;;;;;;;36.35;18.77;;;12.70;99.90;;;;;;4973138;28;20297;-84
2021/12/16 10:17:21;;;;;;;38.03;20.48;;;12.80;99.90;;;;;;4977306;28;20185;-77
2021/12/16 10:17:50;;;;;;;40.00;19.38;;;12.90;99.90;;;;;;4976664;28;20755;-82
2021/12/16 10:20:27;;;;;;;37.20;20.23;;;12.80;99.90;;;;;;4977340;28;20174;-78
2021/12/16 10:23:07;;;;;;;31.00;19.10;;;13.10;99.90;;;;;;4975803;28;20181;-78
2021/12/16 10:25:43;;;;;;;44.28;21.25;;;13.30;99.90;;;;;;4975720;28;20161;-86
2021/12/16 10:28:16;;;;;;;33.63;18.90;;;13.10;99.90;;;;;;4975519;28;20236;-85
2021/12/16 10:31:02;;;;;;;31.38;18.95;;;13.00;99.90;;;;;;4976397;28;20173;-81
2021/12/16 10:33:47;;;;;;;29.83;18.50;;;13.10;99.90;;;;;;4976061;28;20174;-84
2021/12/16 10:36:32;;;;;;;33.45;19.60;;;13.40;99.90;;;;;;4976060;28;20286;-88
2021/12/16 10:39:02;;;;;;;40.72;22.73;;;13.60;99.90;;;;;;4975987;28;20162;-79
2021/12/16 10:41:36;;;;;;;30.30;19.10;;;13.70;99.90;;;;;;4975457;28;20201;-81
2021/12/16 10:44:05;;;;;;;36.33;20.75;;;13.20;99.90;;;;;;4975103;28;20629;-86
2021/12/16 10:46:36;;;;;;;34.60;20.35;;;13.30;99.90;;;;;;4973279;28;20182;-84
2021/12/16 10:49:07;;;;;;;42.58;20.75;;;13.40;99.90;;;;;;4974169;28;20197;-79
2021/12/16 10:51:42;;;;;;;33.42;20.38;;;13.60;99.90;;;;;;4977355;28;20198;-82
2021/12/16 10:54:10;;;;;;;40.25;20.08;;;13.70;99.90;;;;;;4976459;28;20710;-88
2021/12/16 10:57:03;;;;;;;40.53;21.38;;;13.80;99.90;;;;;;4975720;28;20548;-79
2021/12/16 10:59:44;;;;;;;37.08;20.70;;;13.90;99.90;;;;;;4977895;28;20177;-81
2021/12/16 11:02:10;;;;;;;35.90;20.77;;;14.10;99.90;;;;;;4978542;28;20182;-78
2021/12/16 11:04:56;;;;;;;29.60;20.17;;;13.90;99.90;;;;;;4978874;28;20176;-86
2021/12/16 11:07:24;;;;;;;39.03;20.67;;;13.70;99.90;;;;;;4976441;28;20233;-84
2021/12/16 11:10:04;;;;;;;31.55;19.10;;;13.80;99.90;;;;;;4977570;28;20288;-78
2021/12/16 11:12:36;;;;;;;40.65;22.08;;;14.00;99.90;;;;;;4976694;28;20165;-88
2021/12/16 11:15:04;;;;;;;32.17;19.92;;;14.20;99.90;;;;;;4977470;28;20510;-82
2021/12/16 11:17:34;;;;;;;37.55;21.17;;;14.30;99.90;;;;;;4975826;28;20193;-84
2021/12/16 11:20:08;;;;;;;40.72;20.42;;;14.20;99.90;;;;;;4976992;28;20174;-84
2021/12/16 11:22:37;;;;;;;42.05;20.33;;;13.90;99.90;;;;;;4977580;28;20170;-79
2021/12/16 11:25:32;;;;;;;35.75;20.83;;;13.70;99.90;;;;;;4976684;28;20169;-85
2021/12/16 11:28:09;;;;;;;30.92;18.38;;;13.70;99.90;;;;;;4974231;28;20198;-80
2021/12/16 11:30:40;;;;;;;35.75;21.50;;;13.80;99.90;;;;;;4977520;28;20208;-79
2021/12/16 11:33:16;;;;;;;38.15;21.40;;;13.40;99.90;;;;;;4977568;28;20593;-78
2021/12/16 11:35:47;;;;;;;40.90;21.55;;;13.70;99.90;;;;;;4977050;28;20260;-78
2021/12/16 11:38:23;;;;;;;33.78;20.33;;;14.00;99.90;;;;;;4976446;28;20186;-81
2021/12/16 11:41:06;;;;;;;39.92;20.70;;;14.00;99.90;;;;;;4976147;28;20173;-76
2021/12/16 11:43:40;;;;;;;30.40;20.33;;;14.10;99.90;;;;;;4976503;28;20176;-79
2021/12/16 11:46:24;;;;;;;29.05;19.02;;;14.10;99.90;;;;;;4976435;28;20181;-78
2021/12/16 11:48:54;;;;;;;38.92;20.48;;;14.10;99.90;;;;;;4979297;28;20241;-76
2021/12/16 11:51:54;;;;;;;34.72;20.35;;;14.30;99.90;;;;;;4984834;28;20221;-76
2021/12/16 11:54:30;;;;;;;38.88;21.17;;;14.40;99.90;;;;;;4961145;28;20213;-75
2021/12/16 11:57:16;;;;;;;37.65;20.88;;;14.30;99.90;;;;;;4984149;28;20271;-84
2021/12/16 11:59:50;;;;;;;31.63;20.90;;;14.00;99.90;;;;;;4979936;28;20165;-78
2021/12/16 12:02:38;;;;;;;37.78;20.10;;;14.00;99.90;;;;;;4981665;28;20170;-85
2021/12/16 12:05:26;;;;;;;31.75;20.25;;;13.90;99.90;;;;;;4987994;28;20628;-79
2021/12/16 12:07:59;;;;;;;34.92;21.50;;;13.90;99.90;;;;;;4998168;28;20238;-80
2021/12/16 12:10:53;;;;;;;36.67;20.45;;;14.00;99.90;;;;;;5001323;28;20188;-81
2021/12/16 12:13:26;;;;;;;33.20;19.33;;;14.30;99.90;;;;;;5000166;28;20169;-77
2021/12/16 12:16:14;;;;;;;31.23;19.88;;;14.30;99.90;;;;;;4997296;28;20187;-77
2021/12/16 12:18:39;;;;;;;44.38;20.38;;;14.20;99.90;;;;;;4997151;28;20644;-79
2021/12/16 12:21:28;;;;;;;32.63;19.92;;;14.40;99.90;;;;;;4997878;28;20177;-86
2021/12/16 12:24:17;;;;;;;36.47;19.88;;;14.40;99.90;;;;;;4996268;28;20162;-84
2021/12/16 12:27:00;;;;;;;35.78;18.25;;;14.40;99.90;;;;;;4995733;28;20533;-87
2021/12/16 12:29:28;;;;;;;55.63;19.83;;;14.20;99.90;;;;;;4996933;28;20201;-85
2021/12/16 12:32:02;;;;;;;27.77;18.40;;;14.50;99.90;;;;;;4996952;28;20477;-86
2021/12/16 12:34:29;;;;;;;31.83;19.25;;;14.60;99.90;;;;;;4996644;28;20260;-83
2021/12/16 12:37:01;;;;;;;33.63;19.33;;;14.50;99.90;;;;;;4996648;28;20204;-81
2021/12/16 12:39:32;;;;;;;34.97;19.75;;;14.40;99.90;;;;;;4997069;28;20168;-78
2021/12/16 12:41:58;;;;;;;38.70;20.20;;;14.40;99.90;;;;;;4990210;28;20208;-78
2021/12/16 12:44:24;;;;;;;38.53;19.85;;;14.50;99.90;;;;;;5006915;28;20181;-77
2021/12/16 12:46:51;;;;;;;53.00;20.25;;;14.60;99.90;;;;;;5006335;28;20204;-78
2021/12/16 12:49:24;;;;;;;34.13;20.40;;;14.50;99.90;;;;;;5006428;28;20279;-80
2021/12/16 12:51:50;;;;;;;46.30;20.55;;;14.60;99.90;;;;;;4988809;28;20179;-83
2021/12/16 12:54:26;;;;;;;41.75;17.77;;;14.80;99.90;;;;;;5007672;28;20169;-79
2021/12/16 12:56:56;;;;;;;47.72;21.02;;;14.40;99.90;;;;;;5008645;28;20199;-79
2021/12/16 12:59:37;;;;;;;43.67;21.77;;;14.50;99.90;;;;;;5006774;28;20170;-79
2021/12/16 13:02:15;;;;;;;56.28;22.90;;;14.40;99.90;;;;;;5009425;28;20145;-78
2021/12/16 13:04:57;;;;;;;42.70;19.67;;;14.60;99.90;;;;;;5009229;28;20176;-82
2021/12/16 13:07:43;;;;;;;46.88;19.52;;;14.70;99.90;;;;;;5009325;28;20190;-81
2021/12/16 13:10:44;;;;;;;36.78;19.23;;;14.80;99.90;;;;;;5001865;28;20244;-79
2021/12/16 13:13:52;;;;;;;68.85;21.73;;;14.90;99.90;;;;;;5008333;28;20200;-78
2021/12/16 13:27:43;;;;;;;46.92;19.77;;;14.90;99.90;;;;;;5018366;28;20224;-82
2021/12/16 13:32:45;;;;;;;35.75;17.42;;;14.70;99.90;;;;;;4996244;28;20173;-77
2021/12/16 13:35:32;;;;;;;29.27;16.75;;;14.60;99.90;;;;;;4995784;28;20227;-82
2021/12/16 13:37:59;;;;;;;42.85;18.50;;;14.60;99.90;;;;;;4995514;28;20189;-77
2021/12/16 13:40:35;;;;;;;27.30;16.90;;;14.50;99.90;;;;;;4995275;28;20169;-76
2021/12/16 13:43:13;;;;;;;30.40;18.48;;;14.50;99.90;;;;;;4995957;28;20311;-85
2021/12/16 13:45:57;;;;;;;29.92;17.80;;;14.40;99.90;;;;;;4995734;28;20630;-86
2021/12/16 14:05:49;;;;;;;26.98;13.52;;;13.80;99.90;;;;;;4995634;28;20211;-85
2021/12/16 14:08:35;;;;;;;27.27;13.68;;;13.90;99.90;;;;;;4977349;28;20200;-85
2021/12/16 14:11:26;;;;;;;27.58;14.05;;;13.80;99.90;;;;;;4995706;28;20173;-86
2021/12/16 14:39:28;;;;;;;21.02;13.38;;;13.70;99.90;;;;;;5009067;28;20212;-84
2021/12/16 14:42:24;;;;;;;29.27;15.15;;;13.60;99.90;;;;;;4998092;28;20201;-91
2021/12/16 14:50:16;;;;;;;24.42;14.77;;;13.30;99.90;;;;;;4996582;28;20231;-79
2021/12/16 14:52:42;;;;;;;31.00;15.07;;;13.20;99.90;;;;;;4996465;28;20177;-88
2021/12/16 14:55:11;;;;;;;20.42;14.93;;;13.30;99.90;;;;;;4996022;28;20240;-85
2021/12/16 14:57:44;;;;;;;33.67;15.55;;;13.30;99.90;;;;;;4995632;28;20663;-81
2021/12/16 15:00:21;;;;;;;35.20;18.42;;;13.30;99.90;;;;;;4995528;28;20169;-78
2021/12/16 15:02:57;;;;;;;36.15;17.13;;;13.10;99.90;;;;;;4993707;28;20164;-79
2021/12/16 15:05:31;;;;;;;27.75;17.17;;;13.00;99.90;;;;;;4992790;28;20682;-82
2021/12/16 15:08:10;;;;;;;35.90;17.17;;;12.90;99.90;;;;;;4994747;28;20235;-79
2021/12/16 15:10:36;;;;;;;35.20;17.88;;;13.00;99.90;;;;;;4992952;28;20570;-80
2021/12/16 15:13:13;;;;;;;40.80;19.35;;;13.00;99.90;;;;;;4994183;28;20162;-88
2021/12/16 15:16:21;;;;;;;47.55;19.52;;;13.10;99.90;;;;;;4994283;28;20173;-77
2021/12/16 15:35:53;;;;;;;35.85;19.02;;;12.90;99.90;;;;;;4996062;28;20263;-81
2021/12/16 15:38:37;;;;;;;59.42;19.60;;;12.90;99.90;;;;;;4994731;28;20197;-83
2021/12/16 15:43:55;;;;;;;42.65;16.80;;;12.60;99.90;;;;;;4993561;28;20211;-78
2021/12/16 15:46:20;;;;;;;40.97;18.35;;;12.40;99.90;;;;;;5004204;28;20177;-84
2021/12/16 15:48:49;;;;;;;52.20;20.50;;;12.30;99.90;;;;;;4981042;28;20275;-79
2021/12/16 15:51:16;;;;;;;35.50;18.17;;;12.40;99.90;;;;;;4982898;28;20251;-77
2021/12/16 15:53:48;;;;;;;56.83;20.60;;;12.30;99.90;;;;;;4989435;28;20270;-78
2021/12/16 15:56:27;;;;;;;46.90;19.65;;;12.30;99.90;;;;;;4966844;29;20245;-81
2021/12/16 15:58:55;;;;;;;41.88;20.23;;;12.30;99.90;;;;;;4971195;28;20216;-77
2021/12/16 16:01:27;;;;;;;50.22;19.67;;;12.20;99.90;;;;;;4984708;28;20182;-77
2021/12/16 16:03:53;;;;;;;45.50;20.58;;;12.10;99.90;;;;;;4985013;28;20174;-80
2021/12/16 16:06:19;;;;;;;34.22;19.20;;;12.10;99.90;;;;;;4981817;28;20192;-85
2021/12/16 16:08:52;;;;;;;47.25;18.95;;;12.10;99.90;;;;;;4978731;28;20241;-82
2021/12/16 16:11:25;;;;;;;36.50;18.65;;;12.10;99.90;;;;;;4978662;28;20185;-83
2021/12/16 16:13:57;;;;;;;54.10;18.83;;;12.10;99.90;;;;;;4976178;28;20513;-79
2021/12/16 16:16:32;;;;;;;62.83;20.90;;;12.10;99.90;;;;;;4976304;28;20504;-84
2021/12/16 16:19:00;;;;;;;48.40;19.50;;;11.90;99.90;;;;;;4980932;28;20165;-78
2021/12/16 16:21:36;;;;;;;46.22;18.67;;;11.90;99.90;;;;;;4971089;28;20178;-87
2021/12/16 16:24:27;;;;;;;49.42;21.00;;;11.90;99.90;;;;;;4974903;28;20182;-77
2021/12/16 16:26:55;;;;;;;37.13;18.73;;;11.80;99.90;;;;;;4976164;28;20680;-80
2021/12/16 16:29:23;;;;;;;37.72;18.90;;;11.90;99.90;;;;;;4971867;28;20209;-84
2021/12/16 16:31:51;;;;;;;46.60;19.95;;;11.80;99.90;;;;;;4967051;28;20203;-84
2021/12/16 16:34:18;;;;;;;47.90;18.48;;;11.70;99.90;;;;;;4968589;28;20177;-82
2021/12/16 16:36:49;;;;;;;42.53;18.35;;;11.60;99.90;;;;;;4976674;28;20173;-81
2021/12/16 16:39:18;;;;;;;38.20;18.63;;;11.40;99.90;;;;;;4976408;28;20193;-82
2021/12/16 16:41:53;;;;;;;29.35;18.33;;;11.30;99.90;;;;;;4974692;28;20647;-85
2021/12/16 16:44:22;;;;;;;47.00;20.50;;;11.30;99.90;;;;;;4977795;28;20166;-78
2021/12/16 16:47:03;;;;;;;62.60;21.58;;;11.40;99.90;;;;;;4960113;28;20287;-78